Time;durP1;ratioP1;P1;durP2;ratioP2;P2;SDS_P1;SDS_P2;PMS_P1;PMS_P2;Temp;Humidity;BMP_temperature;BMP_pressure;BME280_temperature;BME280_humidity;BME280_pressure;Samples;Min_cycle;Max_cycle;Signal;HPM_P1;HPM_P2
2022/06/05 00:02:12;;;;;;;13.75;6.68;;;20.90;99.90;;;;;;5019338;28;20074;-91
2022/06/05 00:04:50;;;;;;;10.48;5.88;;;20.80;99.90;;;;;;4999447;28;20045;-90
2022/06/05 00:07:22;;;;;;;14.82;6.15;;;20.80;99.90;;;;;;5010658;28;20423;-90
2022/06/05 00:10:17;;;;;;;13.23;6.47;;;20.70;99.90;;;;;;5016780;28;20041;-90
2022/06/05 00:13:04;;;;;;;13.43;6.88;;;20.70;99.90;;;;;;5025489;28;20268;-90
2022/06/05 00:15:31;;;;;;;11.20;6.07;;;20.60;99.90;;;;;;5038022;28;20040;-91
2022/06/05 00:18:02;;;;;;;15.07;6.28;;;20.50;99.90;;;;;;5037503;28;20022;-90
2022/06/05 00:20:31;;;;;;;15.98;6.10;;;20.50;99.90;;;;;;5041065;28;20032;-90
2022/06/05 00:22:57;;;;;;;12.95;6.40;;;20.50;99.90;;;;;;5026052;28;20022;-90
2022/06/05 00:25:31;;;;;;;11.43;5.95;;;20.50;99.90;;;;;;5022451;28;20025;-90
2022/06/05 00:28:08;;;;;;;9.43;5.97;;;20.50;99.90;;;;;;5018997;28;20029;-90
2022/06/05 00:30:43;;;;;;;11.25;6.35;;;20.50;99.90;;;;;;5035521;28;20032;-90
2022/06/05 00:33:38;;;;;;;11.38;5.63;;;20.50;99.90;;;;;;5016108;28;20222;-89
2022/06/05 00:36:30;;;;;;;13.23;5.90;;;20.40;99.90;;;;;;5039079;28;20056;-88
2022/06/05 00:39:31;;;;;;;12.40;6.15;;;20.50;99.90;;;;;;5031019;28;20057;-89
2022/06/05 00:42:08;;;;;;;16.75;5.78;;;20.50;99.90;;;;;;4974659;28;20091;-89
2022/06/05 00:45:09;;;;;;;13.95;5.75;;;20.40;99.90;;;;;;5042176;28;21534;-90
2022/06/05 00:47:35;;;;;;;12.23;5.80;;;20.50;99.90;;;;;;5021974;28;20033;-90
2022/06/05 00:50:08;;;;;;;15.18;6.65;;;20.40;99.90;;;;;;5041792;28;20104;-90
2022/06/05 00:52:37;;;;;;;10.52;6.18;;;20.40;99.90;;;;;;5025451;28;20037;-89
2022/06/05 00:55:12;;;;;;;11.55;6.38;;;20.40;99.90;;;;;;5023317;28;20057;-90
2022/06/05 00:57:47;;;;;;;13.30;6.03;;;20.40;99.90;;;;;;5023171;28;20021;-91
2022/06/05 01:00:21;;;;;;;11.82;6.43;;;20.40;99.90;;;;;;5021785;28;20053;-89
2022/06/05 01:03:08;;;;;;;14.82;6.38;;;20.50;99.90;;;;;;5026423;28;20075;-89
2022/06/05 01:06:01;;;;;;;10.45;6.25;;;20.50;99.90;;;;;;5017175;28;20125;-90
2022/06/05 01:08:44;;;;;;;15.10;7.30;;;20.50;99.90;;;;;;5018734;28;20499;-89
2022/06/05 01:11:25;;;;;;;12.93;6.55;;;20.40;99.90;;;;;;5037456;28;20026;-90
2022/06/05 01:14:12;;;;;;;12.30;6.85;;;20.50;99.90;;;;;;5021434;28;20388;-89
2022/06/05 01:17:11;;;;;;;14.57;6.78;;;20.50;99.90;;;;;;5021788;28;20033;-89
2022/06/05 01:20:43;;;;;;;12.00;6.95;;;20.50;99.90;;;;;;5023864;28;20484;-89
2022/06/05 01:24:17;;;;;;;;;;;;;;;;;;;;;
2022/06/05 01:27:12;;;;;;;14.90;7.75;;;20.60;99.90;;;;;;4886145;29;20047;-90
2022/06/05 01:30:13;;;;;;;12.30;7.15;;;20.50;99.90;;;;;;4894831;28;20116;-90
2022/06/05 01:33:05;;;;;;;11.60;6.40;;;20.50;99.90;;;;;;5023306;28;20369;-89
2022/06/05 01:36:09;;;;;;;11.15;7.15;;;20.50;99.90;;;;;;5022794;28;20037;-89
2022/06/05 01:39:06;;;;;;;9.50;6.72;;;20.50;99.90;;;;;;5028043;28;20017;-89
2022/06/05 01:41:52;;;;;;;11.68;7.03;;;20.50;99.90;;;;;;5016829;28;20060;-90
2022/06/05 01:44:26;;;;;;;15.65;7.18;;;20.60;99.90;;;;;;5044239;28;20025;-91
2022/06/05 01:47:23;;;;;;;13.15;6.45;;;20.60;99.90;;;;;;5041894;28;20091;-88
2022/06/05 01:50:27;;;;;;;13.27;6.53;;;20.70;99.90;;;;;;5013803;28;20025;-92
2022/06/05 01:52:59;;;;;;;13.75;6.25;;;20.70;99.90;;;;;;5013947;28;20136;-92
2022/06/05 01:55:40;;;;;;;10.05;5.88;;;20.70;99.90;;;;;;5024950;28;20037;-91
2022/06/05 01:58:08;;;;;;;11.68;6.13;;;20.70;99.90;;;;;;5017462;28;20108;-91
2022/06/05 02:00:35;;;;;;;20.58;6.60;;;20.70;99.90;;;;;;5030760;28;20032;-92
2022/06/05 02:03:10;;;;;;;13.05;6.40;;;20.80;99.90;;;;;;5040563;28;20472;-89
2022/06/05 02:05:49;;;;;;;12.95;5.60;;;20.70;99.90;;;;;;5041165;28;20027;-91
2022/06/05 02:08:46;;;;;;;15.82;5.78;;;20.70;99.90;;;;;;5023522;28;20017;-91
2022/06/05 02:11:25;;;;;;;8.55;5.80;;;20.70;99.90;;;;;;5029914;28;20087;-91
2022/06/05 02:13:56;;;;;;;13.68;6.63;;;20.80;99.90;;;;;;5025548;28;20021;-92
2022/06/05 02:16:22;;;;;;;15.05;6.38;;;20.80;99.90;;;;;;5042760;28;20499;-92
2022/06/05 02:18:48;;;;;;;10.57;6.38;;;20.80;99.90;;;;;;5049479;28;20017;-90
2022/06/05 02:21:14;;;;;;;11.40;6.40;;;20.90;99.90;;;;;;5028924;28;20027;-89
2022/06/05 02:23:40;;;;;;;14.25;6.38;;;20.90;99.90;;;;;;5028236;28;20021;-92
2022/06/05 02:26:09;;;;;;;11.73;6.75;;;20.90;99.90;;;;;;5017742;28;20029;-92
2022/06/05 02:28:36;;;;;;;15.73;6.95;;;20.90;99.90;;;;;;5020609;28;20059;-91
2022/06/05 02:31:34;;;;;;;11.75;6.55;;;21.00;99.90;;;;;;5018441;28;20159;-92
2022/06/05 02:34:18;;;;;;;10.98;7.25;;;21.00;99.90;;;;;;5020308;28;20037;-91
2022/06/05 02:37:09;;;;;;;7.32;5.82;;;21.00;99.90;;;;;;5027485;28;20399;-92
2022/06/05 02:40:00;;;;;;;13.32;6.50;;;21.00;99.90;;;;;;5038547;28;20061;-92
2022/06/05 02:42:41;;;;;;;13.30;6.90;;;21.00;99.90;;;;;;5045997;28;20430;-93
2022/06/05 02:45:29;;;;;;;15.90;6.25;;;21.00;99.90;;;;;;5044301;28;20036;-92
2022/06/05 02:48:19;;;;;;;16.70;6.72;;;21.00;99.90;;;;;;5034051;28;20032;-91
2022/06/05 02:51:26;;;;;;;13.35;6.63;;;21.00;99.90;;;;;;5037613;28;20507;-91
2022/06/05 02:53:56;;;;;;;9.02;6.57;;;21.00;99.90;;;;;;5013165;28;20041;-92
2022/06/05 02:56:24;;;;;;;16.52;7.05;;;21.00;99.90;;;;;;5046349;28;20065;-92
2022/06/05 02:58:51;;;;;;;22.63;6.53;;;21.10;99.90;;;;;;5030471;28;20018;-92
2022/06/05 03:04:03;;;;;;;12.80;6.65;;;21.00;99.90;;;;;;5034112;28;20036;-92
2022/06/05 03:06:30;;;;;;;11.90;6.57;;;21.00;99.90;;;;;;5035587;28;20028;-91
2022/06/05 03:08:56;;;;;;;16.40;7.28;;;21.00;99.90;;;;;;5046302;28;20479;-94
2022/06/05 03:11:22;;;;;;;12.30;5.90;;;21.10;99.90;;;;;;5043243;28;20025;-92
2022/06/05 03:13:48;;;;;;;13.63;6.70;;;21.10;99.90;;;;;;5019419;28;20399;-91
2022/06/05 03:16:14;;;;;;;14.50;7.07;;;21.20;99.90;;;;;;5020679;28;20381;-92
2022/06/05 03:18:40;;;;;;;16.88;6.85;;;21.20;99.90;;;;;;5025103;28;20028;-90
2022/06/05 03:21:06;;;;;;;11.65;6.95;;;21.20;99.90;;;;;;5044163;28;20033;-91
2022/06/05 03:23:32;;;;;;;12.95;7.00;;;21.10;99.90;;;;;;5040026;28;20021;-90
2022/06/05 03:25:58;;;;;;;13.30;6.90;;;21.10;99.90;;;;;;5021892;28;20025;-92
2022/06/05 03:28:24;;;;;;;12.10;6.85;;;21.20;99.90;;;;;;5043960;28;20021;-91
2022/06/05 03:30:51;;;;;;;13.82;7.20;;;21.10;99.90;;;;;;5039613;28;20021;-90
2022/06/05 03:33:17;;;;;;;9.85;6.50;;;21.20;99.90;;;;;;5040084;28;20507;-90
2022/06/05 03:35:44;;;;;;;10.50;6.30;;;21.10;99.90;;;;;;5039250;28;20064;-91
2022/06/05 03:38:12;;;;;;;22.70;6.72;;;21.10;99.90;;;;;;5038996;28;20021;-91
2022/06/05 03:40:43;;;;;;;17.73;6.60;;;21.20;99.90;;;;;;5025825;28;20091;-90
2022/06/05 03:43:09;;;;;;;7.47;6.05;;;21.20;99.90;;;;;;5022286;28;20075;-90
2022/06/05 03:45:35;;;;;;;14.25;6.53;;;21.30;99.90;;;;;;5051544;28;20044;-89
2022/06/05 03:48:01;;;;;;;12.60;6.47;;;21.40;99.90;;;;;;5036240;28;20021;-90
2022/06/05 03:50:27;;;;;;;9.27;6.10;;;21.50;99.90;;;;;;5045666;28;20112;-92
2022/06/05 03:52:53;;;;;;;11.68;6.25;;;21.50;99.90;;;;;;5043516;28;20052;-92
2022/06/05 03:55:22;;;;;;;12.77;6.82;;;21.60;99.90;;;;;;5024819;28;20033;-91
2022/06/05 03:57:48;;;;;;;17.83;6.90;;;21.70;99.90;;;;;;5013818;28;20049;-91
2022/06/05 04:00:16;;;;;;;15.02;7.28;;;21.70;99.90;;;;;;5038476;28;20025;-93
2022/06/05 04:02:43;;;;;;;11.13;6.75;;;21.80;99.90;;;;;;5041621;28;20013;-92
2022/06/05 04:05:11;;;;;;;17.45;6.78;;;21.80;99.90;;;;;;5038656;28;20060;-92
2022/06/05 04:07:37;;;;;;;16.02;7.32;;;21.80;99.90;;;;;;5020699;28;20477;-91
2022/06/05 04:10:03;;;;;;;11.45;6.80;;;21.80;99.90;;;;;;5038580;28;20032;-92
2022/06/05 04:12:29;;;;;;;14.77;6.65;;;21.90;99.90;;;;;;5038810;28;20028;-92
2022/06/05 04:14:54;;;;;;;12.60;6.55;;;21.90;99.90;;;;;;5025701;28;20037;-92
2022/06/05 04:17:20;;;;;;;14.63;7.05;;;22.00;99.90;;;;;;5026758;28;20028;-91
2022/06/05 04:19:46;;;;;;;16.38;7.13;;;22.00;99.90;;;;;;5037918;28;20028;-91
2022/06/05 04:22:11;;;;;;;17.60;7.15;;;22.10;99.90;;;;;;5045926;28;20036;-91
2022/06/05 04:24:37;;;;;;;12.65;6.78;;;22.10;99.90;;;;;;5034980;28;20209;-91
2022/06/05 04:27:03;;;;;;;17.75;6.80;;;22.30;99.90;;;;;;5024731;28;20491;-90
2022/06/05 04:29:29;;;;;;;8.93;6.63;;;22.30;99.90;;;;;;5036129;28;20021;-90
2022/06/05 04:31:55;;;;;;;17.92;7.00;;;22.40;99.90;;;;;;5043807;28;20040;-93
2022/06/05 04:34:22;;;;;;;17.83;7.57;;;22.60;99.90;;;;;;5038613;28;20041;-92
2022/06/05 04:36:49;;;;;;;8.50;6.88;;;22.70;99.90;;;;;;5041156;28;20071;-92
2022/06/05 04:39:15;;;;;;;13.07;6.63;;;22.80;99.90;;;;;;5020633;28;20030;-90
2022/06/05 04:41:42;;;;;;;12.32;6.53;;;23.00;99.90;;;;;;5040296;28;20041;-93
2022/06/05 04:44:14;;;;;;;16.55;7.10;;;23.20;99.90;;;;;;5026382;28;20029;-91
2022/06/05 04:46:40;;;;;;;9.90;6.82;;;23.30;99.90;;;;;;5026080;28;20126;-93
2022/06/05 04:49:06;;;;;;;15.73;7.80;;;23.40;99.90;;;;;;5039119;28;20113;-91
2022/06/05 04:51:33;;;;;;;15.35;6.80;;;23.50;99.90;;;;;;5024926;28;20025;-92
2022/06/05 04:54:01;;;;;;;9.70;7.10;;;23.50;99.90;;;;;;5026480;28;20025;-90
2022/06/05 04:56:28;;;;;;;12.55;6.60;;;23.60;99.90;;;;;;5038162;28;20383;-90
2022/06/05 04:58:55;;;;;;;13.98;6.95;;;23.50;99.90;;;;;;5042503;28;20091;-89
2022/06/05 05:01:22;;;;;;;12.57;6.63;;;23.60;99.90;;;;;;5041901;28;20055;-90
2022/06/05 05:03:50;;;;;;;15.90;7.10;;;23.60;99.90;;;;;;5030387;28;20025;-91
2022/06/05 05:06:16;;;;;;;11.82;6.50;;;23.50;99.90;;;;;;5022490;28;20028;-91
2022/06/05 05:08:42;;;;;;;18.35;7.70;;;23.60;99.90;;;;;;5021907;28;20221;-90
2022/06/05 05:11:08;;;;;;;14.75;6.75;;;23.60;99.90;;;;;;5045439;28;20074;-92
2022/06/05 05:13:34;;;;;;;13.27;6.82;;;23.60;99.90;;;;;;5023188;28;20025;-92
2022/06/05 05:16:00;;;;;;;17.98;6.88;;;23.60;99.90;;;;;;5045394;28;20036;-92
2022/06/05 05:18:26;;;;;;;12.45;6.82;;;23.70;99.90;;;;;;5044637;28;20352;-92
2022/06/05 05:20:52;;;;;;;12.50;6.85;;;23.70;99.90;;;;;;5031416;28;20110;-93
2022/06/05 05:23:19;;;;;;;12.85;6.78;;;23.80;99.90;;;;;;5031360;28;20057;-91
2022/06/05 05:25:46;;;;;;;14.95;6.80;;;23.90;99.90;;;;;;5040382;28;20021;-86
2022/06/05 05:28:12;;;;;;;13.00;6.88;;;23.90;99.90;;;;;;5041045;28;20028;-88
2022/06/05 05:30:45;;;;;;;10.70;6.70;;;23.90;99.90;;;;;;5025656;28;20114;-88
2022/06/05 05:33:12;;;;;;;13.57;6.78;;;24.00;99.90;;;;;;5028854;28;20375;-89
2022/06/05 05:35:38;;;;;;;13.60;8.00;;;24.00;99.90;;;;;;5047003;28;20064;-90
2022/06/05 05:38:04;;;;;;;15.57;7.03;;;24.10;99.90;;;;;;5053509;28;20094;-89
2022/06/05 05:43:14;;;;;;;12.93;7.65;;;24.30;99.90;;;;;;5035922;28;20024;-91
2022/06/05 05:45:39;;;;;;;13.48;7.30;;;24.40;99.90;;;;;;5046070;28;20029;-92
2022/06/05 05:48:05;;;;;;;14.45;6.90;;;24.40;99.90;;;;;;5039753;28;20045;-91
2022/06/05 05:50:31;;;;;;;14.40;6.55;;;24.50;99.90;;;;;;5041366;28;20060;-92
2022/06/05 05:52:57;;;;;;;10.85;6.93;;;24.50;99.90;;;;;;5042034;28;20081;-93
2022/06/05 05:55:22;;;;;;;14.65;8.00;;;24.60;99.90;;;;;;5040634;28;20118;-91
2022/06/05 05:57:48;;;;;;;21.17;8.35;;;24.70;99.90;;;;;;5042804;28;20021;-86
2022/06/05 06:00:17;;;;;;;13.82;7.30;;;24.70;99.90;;;;;;5043717;28;20033;-92
2022/06/05 06:02:43;;;;;;;13.23;7.20;;;24.80;99.90;;;;;;5051578;28;20021;-89
2022/06/05 06:05:12;;;;;;;12.85;7.68;;;24.90;99.90;;;;;;5034649;28;20032;-94
2022/06/05 06:07:38;;;;;;;10.07;6.68;;;25.00;99.90;;;;;;5046251;28;20018;-94
2022/06/05 06:10:05;;;;;;;18.02;7.18;;;25.10;99.90;;;;;;5044434;28;20033;-91
2022/06/05 06:12:31;;;;;;;19.75;7.45;;;25.10;99.90;;;;;;5024156;28;20432;-91
2022/06/05 06:14:57;;;;;;;13.85;6.95;;;25.20;99.90;;;;;;5043037;28;20037;-92
2022/06/05 06:17:23;;;;;;;13.00;7.47;;;25.30;99.90;;;;;;5047923;28;20070;-93
2022/06/05 06:19:49;;;;;;;12.52;7.55;;;25.40;99.90;;;;;;5026755;28;20022;-92
2022/06/05 06:22:15;;;;;;;14.98;7.53;;;25.50;99.90;;;;;;5042162;28;20369;-93
2022/06/05 06:24:41;;;;;;;12.57;7.65;;;25.60;99.90;;;;;;5022241;28;20032;-90
2022/06/05 06:27:06;;;;;;;14.70;8.57;;;25.70;99.90;;;;;;5030969;28;20433;-90
2022/06/05 06:29:32;;;;;;;15.80;7.45;;;25.80;99.90;;;;;;5029315;28;20022;-91
2022/06/05 06:31:58;;;;;;;14.70;9.00;;;25.90;99.90;;;;;;5040525;28;20049;-91
2022/06/05 06:34:24;;;;;;;22.63;9.10;;;26.00;99.90;;;;;;5042897;28;20021;-91
2022/06/05 06:36:50;;;;;;;12.38;6.93;;;26.10;99.90;;;;;;5045124;28;20029;-90
2022/06/05 06:39:16;;;;;;;20.23;10.98;;;26.20;99.90;;;;;;5041610;28;20029;-91
2022/06/05 06:41:42;;;;;;;24.92;12.10;;;26.20;99.90;;;;;;5023014;28;20191;-91
2022/06/05 06:44:11;;;;;;;21.27;10.52;;;26.10;99.90;;;;;;5027909;28;20483;-90
2022/06/05 06:46:39;;;;;;;28.73;11.93;;;25.90;99.90;;;;;;5030080;28;20074;-91
2022/06/05 06:49:06;;;;;;;23.35;12.13;;;25.80;99.90;;;;;;5042227;28;20029;-93
2022/06/05 06:51:44;;;;;;;35.42;12.18;;;25.70;99.90;;;;;;5028481;28;20033;-90
2022/06/05 06:54:10;;;;;;;31.42;11.35;;;25.60;99.90;;;;;;5025438;28;20041;-89
2022/06/05 06:56:36;;;;;;;27.73;10.45;;;25.40;99.90;;;;;;5020360;28;20033;-89
2022/06/05 06:59:03;;;;;;;18.65;9.73;;;25.30;99.90;;;;;;5027770;28;20112;-89
2022/06/05 07:01:30;;;;;;;23.35;10.93;;;25.30;99.90;;;;;;5042658;28;20022;-90
2022/06/05 07:03:58;;;;;;;19.90;11.25;;;25.40;99.90;;;;;;5047168;28;20020;-92
2022/06/05 07:06:25;;;;;;;25.10;11.45;;;25.40;99.90;;;;;;5046707;28;20032;-89
2022/06/05 07:08:54;;;;;;;20.80;10.73;;;25.50;99.90;;;;;;5044762;28;20112;-90
2022/06/05 07:11:20;;;;;;;25.08;10.15;;;25.50;99.90;;;;;;5049254;28;20025;-91
2022/06/05 07:13:48;;;;;;;17.95;10.32;;;25.70;99.90;;;;;;5042375;28;20105;-90
2022/06/05 07:16:14;;;;;;;18.83;10.23;;;25.90;99.90;;;;;;5047957;28;20029;-92
2022/06/05 07:18:46;;;;;;;17.83;11.32;;;26.00;99.90;;;;;;5021800;28;20492;-91
2022/06/05 07:21:46;;;;;;;37.35;11.30;;;26.10;99.90;;;;;;5029702;28;20032;-85
2022/06/05 07:24:20;;;;;;;24.08;10.55;;;26.00;99.90;;;;;;5028047;28;20030;-90
2022/06/05 07:26:46;;;;;;;20.65;9.27;;;26.10;99.90;;;;;;5025810;28;20030;-86
2022/06/05 07:29:21;;;;;;;21.02;8.32;;;26.10;99.90;;;;;;5041183;28;20028;-88
2022/06/05 07:31:58;;;;;;;17.77;8.85;;;26.10;99.90;;;;;;5019065;28;20030;-95
2022/06/05 07:34:24;;;;;;;18.42;8.63;;;26.10;99.90;;;;;;5025007;28;20029;-90
2022/06/05 07:36:51;;;;;;;11.77;8.52;;;26.10;99.90;;;;;;5028672;28;20392;-87
2022/06/05 07:39:16;;;;;;;17.48;9.35;;;26.20;99.90;;;;;;5024772;28;20025;-87
2022/06/05 07:41:42;;;;;;;16.33;9.52;;;26.20;99.90;;;;;;5028153;28;20039;-87
2022/06/05 07:44:08;;;;;;;15.45;9.50;;;26.30;99.90;;;;;;5041133;28;20022;-88
2022/06/05 07:46:35;;;;;;;17.20;9.55;;;26.40;99.90;;;;;;5041975;28;20021;-88
2022/06/05 07:49:01;;;;;;;25.50;10.48;;;26.50;99.90;;;;;;5042688;28;20495;-89
2022/06/05 07:54:30;;;;;;;20.50;13.30;;;26.80;99.90;;;;;;5039047;28;20036;-88
2022/06/05 07:57:08;;;;;;;20.77;10.18;;;26.90;99.90;;;;;;5032625;28;20619;-87
2022/06/05 07:59:39;;;;;;;22.20;11.57;;;27.00;99.90;;;;;;5037572;28;20033;-87
2022/06/05 08:02:08;;;;;;;26.10;10.73;;;27.00;99.90;;;;;;5019935;28;20029;-88
2022/06/05 08:04:35;;;;;;;21.00;11.15;;;26.80;99.90;;;;;;5038217;28;20079;-88
2022/06/05 08:07:03;;;;;;;21.38;10.23;;;26.80;99.90;;;;;;5045860;28;20029;-86
2022/06/05 08:09:29;;;;;;;13.32;9.75;;;26.90;99.90;;;;;;5035202;28;20492;-87
2022/06/05 08:11:56;;;;;;;25.30;10.50;;;27.00;99.90;;;;;;5039323;28;20086;-87
2022/06/05 08:14:22;;;;;;;23.70;13.75;;;27.10;99.90;;;;;;5033764;28;20036;-87
2022/06/05 08:16:48;;;;;;;23.27;13.20;;;27.10;99.90;;;;;;5038685;28;20495;-87
2022/06/05 08:19:24;;;;;;;22.55;13.13;;;27.30;99.90;;;;;;5024202;28;20154;-87
2022/06/05 08:21:52;;;;;;;30.15;11.57;;;27.40;99.90;;;;;;5023286;28;20028;-87
2022/06/05 08:24:18;;;;;;;28.20;13.77;;;27.40;99.90;;;;;;5039708;28;20032;-87
2022/06/05 08:26:44;;;;;;;22.85;13.45;;;27.50;99.90;;;;;;5031524;28;20044;-87
2022/06/05 08:29:10;;;;;;;26.02;17.38;;;27.50;99.90;;;;;;5038965;28;20472;-87
2022/06/05 08:31:37;;;;;;;18.55;14.15;;;27.50;99.90;;;;;;5038132;28;20510;-87
2022/06/05 08:34:03;;;;;;;26.42;13.25;;;27.70;99.90;;;;;;5041617;28;20020;-86
2022/06/05 08:36:29;;;;;;;22.77;12.93;;;27.80;99.90;;;;;;5041537;28;20033;-87
2022/06/05 08:42:02;;;;;;;22.30;13.82;;;27.90;99.90;;;;;;5036663;28;20052;-86
2022/06/05 08:44:42;;;;;;;25.48;15.13;;;28.00;99.90;;;;;;5035253;28;20025;-93
2022/06/05 08:47:20;;;;;;;22.15;13.73;;;28.00;99.90;;;;;;5035328;28;20025;-85
2022/06/05 08:50:01;;;;;;;25.23;13.52;;;28.00;99.90;;;;;;5019018;28;20030;-86
2022/06/05 08:53:03;;;;;;;22.35;13.77;;;27.90;99.90;;;;;;5033810;28;20037;-86
2022/06/05 08:55:36;;;;;;;18.73;14.75;;;28.00;99.90;;;;;;5041143;28;20034;-86
2022/06/05 08:58:09;;;;;;;21.48;13.45;;;28.10;99.90;;;;;;5042273;28;20108;-86
2022/06/05 09:01:00;;;;;;;24.92;13.23;;;28.10;99.90;;;;;;5037401;28;20024;-85
2022/06/05 09:03:36;;;;;;;20.25;11.75;;;28.20;99.90;;;;;;5035011;28;20384;-87
2022/06/05 09:06:32;;;;;;;23.55;12.80;;;28.20;99.90;;;;;;5034695;28;20029;-86
2022/06/05 09:09:00;;;;;;;20.40;12.77;;;28.40;99.90;;;;;;5033893;28;20488;-85
2022/06/05 09:11:41;;;;;;;16.85;13.07;;;28.40;99.90;;;;;;5019938;28;20072;-86
2022/06/05 09:14:13;;;;;;;20.80;12.75;;;28.40;99.90;;;;;;5040500;28;20017;-86
2022/06/05 09:16:45;;;;;;;28.17;13.68;;;28.40;99.90;;;;;;5022130;28;20037;-87
2022/06/05 09:19:24;;;;;;;18.77;13.02;;;28.50;99.90;;;;;;5037682;28;20074;-86
2022/06/05 09:21:52;;;;;;;24.33;13.80;;;28.50;99.90;;;;;;5042188;28;20032;-86
2022/06/05 09:24:26;;;;;;;18.85;14.15;;;28.70;99.90;;;;;;5036266;28;20488;-86
2022/06/05 09:27:26;;;;;;;26.77;14.32;;;28.80;99.90;;;;;;5043916;28;20029;-87
2022/06/05 09:30:00;;;;;;;19.73;11.90;;;28.80;99.90;;;;;;5018230;28;20033;-87
2022/06/05 09:32:41;;;;;;;26.92;13.85;;;29.00;99.90;;;;;;5036681;28;20060;-86
2022/06/05 09:35:17;;;;;;;23.40;12.53;;;29.10;99.90;;;;;;5030348;28;20480;-86
2022/06/05 09:38:00;;;;;;;23.55;12.38;;;29.10;99.90;;;;;;5042512;28;20083;-87
2022/06/05 09:40:35;;;;;;;34.70;11.93;;;29.20;99.90;;;;;;5018719;28;20384;-87
2022/06/05 09:43:21;;;;;;;35.80;19.25;;;29.60;99.90;;;;;;5033517;28;20021;-86
2022/06/05 09:46:08;;;;;;;31.65;12.98;;;29.90;99.90;;;;;;5042004;28;20022;-87
2022/06/05 09:48:56;;;;;;;19.10;11.98;;;29.70;99.90;;;;;;5026045;28;20017;-86
2022/06/05 09:51:22;;;;;;;25.80;12.32;;;29.60;99.90;;;;;;5025120;28;20120;-87
2022/06/05 09:53:54;;;;;;;24.27;11.90;;;29.50;99.90;;;;;;5045290;28;20112;-87
2022/06/05 09:59:50;;;;;;;22.10;12.68;;;29.30;99.90;;;;;;5038361;28;20079;-86
2022/06/05 10:02:22;;;;;;;27.10;15.02;;;29.20;99.90;;;;;;5013495;28;20445;-88
2022/06/05 10:04:50;;;;;;;36.03;17.25;;;29.20;99.90;;;;;;5021954;28;20024;-89
2022/06/05 10:07:26;;;;;;;24.85;16.90;;;29.10;99.90;;;;;;5037975;28;20053;-88
2022/06/05 10:09:53;;;;;;;28.10;16.95;;;29.00;99.90;;;;;;5013992;28;20075;-88
2022/06/05 10:12:27;;;;;;;27.10;17.65;;;29.10;99.90;;;;;;5032471;28;20174;-88
2022/06/05 10:15:31;;;;;;;28.40;18.52;;;28.80;99.90;;;;;;5042255;28;20480;-87
2022/06/05 10:18:03;;;;;;;29.42;19.13;;;28.80;99.90;;;;;;4993517;28;20042;-86
2022/06/05 10:20:37;;;;;;;27.48;18.52;;;28.60;99.90;;;;;;5016792;28;20033;-87
2022/06/05 10:23:03;;;;;;;30.77;18.33;;;28.40;99.90;;;;;;5038635;28;20482;-87
2022/06/05 10:25:51;;;;;;;30.48;17.95;;;28.40;99.90;;;;;;5024021;28;20087;-88
2022/06/05 10:28:26;;;;;;;29.13;17.98;;;28.60;99.90;;;;;;5039009;28;20028;-88
2022/06/05 10:31:03;;;;;;;25.02;16.85;;;28.70;99.90;;;;;;5021743;28;20544;-89
2022/06/05 10:33:53;;;;;;;20.50;15.73;;;28.90;99.90;;;;;;5025708;28;20091;-89
2022/06/05 10:36:58;;;;;;;22.33;14.75;;;28.80;99.90;;;;;;5019220;28;20069;-88
2022/06/05 10:39:32;;;;;;;30.50;18.48;;;28.90;99.90;;;;;;5008419;28;20029;-88
2022/06/05 10:41:58;;;;;;;24.92;17.75;;;29.00;99.90;;;;;;5034369;28;20110;-94
2022/06/05 10:44:35;;;;;;;32.35;17.27;;;28.60;99.90;;;;;;5037330;28;20041;-91
2022/06/05 10:47:17;;;;;;;27.85;17.77;;;28.70;99.90;;;;;;5020160;28;20112;-91
2022/06/05 10:49:49;;;;;;;22.40;14.23;;;28.90;99.90;;;;;;5039116;28;20242;-91
2022/06/05 10:52:28;;;;;;;23.65;16.30;;;29.00;99.90;;;;;;5023502;28;20214;-87
2022/06/05 10:55:19;;;;;;;23.90;16.17;;;29.20;99.90;;;;;;5024771;28;20510;-90
2022/06/05 10:58:27;;;;;;;25.40;17.15;;;29.30;99.90;;;;;;5044551;28;20111;-91
2022/06/05 11:00:52;;;;;;;26.65;18.40;;;29.40;99.90;;;;;;5025380;28;20041;-89
2022/06/05 11:03:25;;;;;;;30.52;19.08;;;29.10;99.90;;;;;;5022088;28;20229;-92
2022/06/05 11:06:19;;;;;;;30.65;18.85;;;29.00;99.90;;;;;;5041690;28;20052;-93
2022/06/05 11:09:06;;;;;;;28.92;18.98;;;29.00;99.90;;;;;;5034314;28;20036;-90
2022/06/05 11:14:48;;;;;;;22.05;14.90;;;29.10;99.90;;;;;;5047960;28;20063;-89
2022/06/05 11:17:44;;;;;;;29.08;15.27;;;29.80;99.90;;;;;;5039352;28;20022;-89
2022/06/05 11:20:22;;;;;;;26.63;14.52;;;30.10;99.90;;;;;;5039521;28;20036;-90
2022/06/05 11:22:59;;;;;;;25.45;14.30;;;30.00;99.90;;;;;;5035160;28;20025;-90
2022/06/05 11:25:46;;;;;;;25.48;14.90;;;30.10;99.90;;;;;;5021488;28;20033;-92
2022/06/05 11:28:24;;;;;;;30.13;18.23;;;30.20;99.90;;;;;;5019862;28;20476;-91
2022/06/05 11:31:27;;;;;;;22.15;15.18;;;30.00;99.90;;;;;;5041413;28;20045;-90
2022/06/05 11:33:58;;;;;;;22.50;14.50;;;30.10;99.90;;;;;;5024042;28;20134;-91
2022/06/05 11:36:29;;;;;;;31.02;14.82;;;30.40;99.90;;;;;;5041432;28;20040;-91
2022/06/05 11:39:23;;;;;;;23.48;16.98;;;31.00;99.90;;;;;;5023663;28;20078;-90
2022/06/05 11:42:06;;;;;;;25.20;14.10;;;30.70;99.90;;;;;;5019260;28;20036;-92
2022/06/05 11:44:32;;;;;;;31.80;18.48;;;30.60;99.90;;;;;;5019021;28;20060;-90
2022/06/05 11:47:08;;;;;;;28.95;17.38;;;30.20;99.90;;;;;;5023751;28;20476;-94
2022/06/05 11:50:03;;;;;;;32.83;19.73;;;30.10;99.90;;;;;;5042043;28;20021;-90
2022/06/05 11:52:44;;;;;;;30.67;21.63;;;29.60;99.90;;;;;;5022848;28;20045;-88
2022/06/05 11:55:10;;;;;;;29.52;19.35;;;28.90;99.90;;;;;;5019263;28;20030;-92
2022/06/05 11:57:41;;;;;;;25.98;16.00;;;28.40;99.90;;;;;;5028804;28;20399;-90
2022/06/05 12:00:10;;;;;;;24.40;15.27;;;28.00;99.90;;;;;;5027076;28;20017;-89
2022/06/05 12:02:56;;;;;;;24.70;14.75;;;27.80;99.90;;;;;;5014116;28;20021;-88
2022/06/05 12:05:37;;;;;;;19.80;9.77;;;27.70;99.90;;;;;;5006456;28;20076;-91
2022/06/05 12:08:16;;;;;;;12.15;9.52;;;28.10;99.90;;;;;;5011716;28;20079;-89
2022/06/05 12:11:29;;;;;;;20.63;11.00;;;28.50;99.90;;;;;;5020130;28;20108;-88
2022/06/05 12:14:19;;;;;;;15.38;10.77;;;29.10;99.90;;;;;;5019373;28;20064;-91
2022/06/05 12:17:03;;;;;;;14.88;9.68;;;29.00;99.90;;;;;;5020037;28;20048;-90
2022/06/05 12:19:56;;;;;;;19.05;9.82;;;29.10;99.90;;;;;;5020551;28;20036;-90
2022/06/05 12:22:43;;;;;;;21.70;8.93;;;28.80;99.90;;;;;;5022615;28;20264;-89
2022/06/05 12:25:44;;;;;;;14.23;8.20;;;30.40;99.90;;;;;;5017321;28;20033;-90
2022/06/05 12:28:19;;;;;;;14.40;7.90;;;32.90;99.90;;;;;;4979632;28;20035;-92
2022/06/05 12:30:56;;;;;;;16.95;6.30;;;33.70;99.90;;;;;;5016039;28;20018;-92
2022/06/05 12:33:49;;;;;;;17.13;6.53;;;34.00;99.90;;;;;;5014161;28;20017;-91
2022/06/05 12:36:39;;;;;;;19.42;6.70;;;34.30;99.90;;;;;;5032057;28;20041;-82
2022/06/05 12:39:31;;;;;;;14.48;4.78;;;34.90;99.90;;;;;;5001858;28;20452;-86
2022/06/05 12:42:28;;;;;;;19.00;5.60;;;36.10;99.90;;;;;;5013108;28;20645;-94
2022/06/05 12:45:25;;;;;;;11.45;4.25;;;36.20;99.90;;;;;;5019050;28;20083;-85
2022/06/05 12:48:03;;;;;;;28.88;5.38;;;36.80;99.90;;;;;;5015596;28;20026;-86
2022/06/05 12:50:45;;;;;;;17.70;4.70;;;37.30;99.90;;;;;;5016369;28;20034;-90
2022/06/05 12:53:16;;;;;;;;;;;38.10;99.90;;;;;;5029792;28;20037;-91
2022/06/05 12:56:12;;;;;;;18.77;5.45;;;36.60;99.90;;;;;;5012769;28;20366;-92
2022/06/05 12:58:46;;;;;;;12.50;4.35;;;33.30;99.90;;;;;;4920845;28;20064;-88
2022/06/05 13:01:23;;;;;;;21.17;4.10;;;31.50;99.90;;;;;;5033256;28;20740;-91
2022/06/05 13:03:49;;;;;;;9.75;4.20;;;30.50;99.90;;;;;;5028198;28;20026;-89
2022/06/05 13:06:36;;;;;;;10.45;4.00;;;29.90;99.90;;;;;;5036179;28;20033;-89
2022/06/05 13:09:32;;;;;;;12.23;4.40;;;29.40;99.90;;;;;;5031071;28;20043;-87
2022/06/05 13:12:08;;;;;;;9.40;4.07;;;29.20;99.90;;;;;;5017060;28;20049;-87
2022/06/05 13:14:45;;;;;;;15.52;4.32;;;29.00;99.90;;;;;;5022101;28;20091;-89
2022/06/05 13:17:33;;;;;;;17.20;4.93;;;29.00;99.90;;;;;;5022801;28;20040;-90
2022/06/05 13:20:08;;;;;;;11.18;4.05;;;29.10;99.90;;;;;;5013816;28;20041;-91
2022/06/05 13:22:45;;;;;;;12.40;4.00;;;29.40;99.90;;;;;;5046605;28;20032;-91
2022/06/05 13:25:11;;;;;;;15.50;3.90;;;30.50;99.90;;;;;;5018635;28;20037;-93
2022/06/05 13:27:58;;;;;;;7.80;3.42;;;33.10;99.90;;;;;;5032539;28;20033;-93
2022/06/05 13:30:27;;;;;;;8.23;3.53;;;37.30;99.90;;;;;;5014623;28;20128;-91
2022/06/05 13:33:12;;;;;;;8.48;4.00;;;40.00;97.70;;;;;;5038076;28;20029;-92
2022/06/05 13:35:47;;;;;;;9.43;4.47;;;41.90;94.70;;;;;;5007146;28;20570;-92